sensor_id;sensor_type;location;lat;lon;timestamp;temperature;humidity
30764;DHT22;17497;51.476;7.770;2022-09-27T00:00:09;9.80;99.90
30764;DHT22;17497;51.476;7.770;2022-09-27T00:02:37;9.80;99.90
30764;DHT22;17497;51.476;7.770;2022-09-27T00:05:03;9.80;99.90
30764;DHT22;17497;51.476;7.770;2022-09-27T00:07:30;9.70;99.90
30764;DHT22;17497;51.476;7.770;2022-09-27T00:09:56;9.80;99.90
30764;DHT22;17497;51.476;7.770;2022-09-27T00:12:23;9.80;99.90
30764;DHT22;17497;51.476;7.770;2022-09-27T00:14:50;9.80;99.90
30764;DHT22;17497;51.476;7.770;2022-09-27T00:17:16;9.70;99.90
30764;DHT22;17497;51.476;7.770;2022-09-27T00:19:43;9.70;99.90
30764;DHT22;17497;51.476;7.770;2022-09-27T00:22:09;9.70;99.90
30764;DHT22;17497;51.476;7.770;2022-09-27T00:27:11;9.70;99.90
30764;DHT22;17497;51.476;7.770;2022-09-27T00:29:38;9.70;99.90
30764;DHT22;17497;51.476;7.770;2022-09-27T00:32:05;9.70;99.90
30764;DHT22;17497;51.476;7.770;2022-09-27T00:34:31;9.70;99.90
30764;DHT22;17497;51.476;7.770;2022-09-27T00:36:58;9.60;99.90
30764;DHT22;17497;51.476;7.770;2022-09-27T00:39:24;9.60;99.90
30764;DHT22;17497;51.476;7.770;2022-09-27T00:41:51;9.70;99.90
30764;DHT22;17497;51.476;7.770;2022-09-27T00:46:54;9.70;99.90
30764;DHT22;17497;51.476;7.770;2022-09-27T00:49:26;9.70;99.90
30764;DHT22;17497;51.476;7.770;2022-09-27T00:51:55;9.60;99.90
30764;DHT22;17497;51.476;7.770;2022-09-27T00:54:23;9.60;99.90
30764;DHT22;17497;51.476;7.770;2022-09-27T00:56:51;9.60;99.90
30764;DHT22;17497;51.476;7.770;2022-09-27T00:59:23;9.60;99.90
30764;DHT22;17497;51.476;7.770;2022-09-27T01:01:52;9.60;99.90
30764;DHT22;17497;51.476;7.770;2022-09-27T01:04:23;9.60;99.90
30764;DHT22;17497;51.476;7.770;2022-09-27T01:06:51;9.60;99.90
30764;DHT22;17497;51.476;7.770;2022-09-27T01:09:18;9.50;99.90
30764;DHT22;17497;51.476;7.770;2022-09-27T01:22:36;9.40;99.90
30764;DHT22;17497;51.476;7.770;2022-09-27T01:32:27;9.30;99.90
30764;DHT22;17497;51.476;7.770;2022-09-27T01:35:02;9.30;99.90
30764;DHT22;17497;51.476;7.770;2022-09-27T01:45:30;9.30;99.90
30764;DHT22;17497;51.476;7.770;2022-09-27T01:48:00;9.30;99.90
30764;DHT22;17497;51.476;7.770;2022-09-27T01:50:31;9.30;99.90
30764;DHT22;17497;51.476;7.770;2022-09-27T01:53:02;9.20;99.90
30764;DHT22;17497;51.476;7.770;2022-09-27T01:55:31;9.20;99.90
30764;DHT22;17497;51.476;7.770;2022-09-27T01:58:02;9.20;99.90
30764;DHT22;17497;51.476;7.770;2022-09-27T02:00:30;9.20;99.90
30764;DHT22;17497;51.476;7.770;2022-09-27T02:02:58;9.20;99.90
30764;DHT22;17497;51.476;7.770;2022-09-27T02:05:28;9.20;99.90
30764;DHT22;17497;51.476;7.770;2022-09-27T02:08:04;9.10;99.90
30764;DHT22;17497;51.476;7.770;2022-09-27T02:10:34;9.20;99.90
30764;DHT22;17497;51.476;7.770;2022-09-27T02:15:40;9.10;99.90
30764;DHT22;17497;51.476;7.770;2022-09-27T02:18:14;9.10;99.90
30764;DHT22;17497;51.476;7.770;2022-09-27T02:20:48;9.20;99.90
30764;DHT22;17497;51.476;7.770;2022-09-27T02:23:20;9.20;99.90
30764;DHT22;17497;51.476;7.770;2022-09-27T02:25:58;9.20;99.90
30764;DHT22;17497;51.476;7.770;2022-09-27T02:28:27;9.20;99.90
30764;DHT22;17497;51.476;7.770;2022-09-27T02:30:54;9.10;99.90
30764;DHT22;17497;51.476;7.770;2022-09-27T02:33:32;9.10;99.90
30764;DHT22;17497;51.476;7.770;2022-09-27T02:36:00;9.10;99.90
30764;DHT22;17497;51.476;7.770;2022-09-27T02:38:27;9.20;99.90
30764;DHT22;17497;51.476;7.770;2022-09-27T02:40:54;9.10;99.90
30764;DHT22;17497;51.476;7.770;2022-09-27T02:43:21;9.10;99.90
30764;DHT22;17497;51.476;7.770;2022-09-27T02:48:21;9.10;99.90
30764;DHT22;17497;51.476;7.770;2022-09-27T02:51:03;9.10;99.90
30764;DHT22;17497;51.476;7.770;2022-09-27T02:56:21;9.10;99.90
30764;DHT22;17497;51.476;7.770;2022-09-27T03:03:49;9.10;99.90
30764;DHT22;17497;51.476;7.770;2022-09-27T03:06:17;9.10;99.90
30764;DHT22;17497;51.476;7.770;2022-09-27T03:08:45;9.10;99.90
30764;DHT22;17497;51.476;7.770;2022-09-27T03:11:12;9.10;99.90
30764;DHT22;17497;51.476;7.770;2022-09-27T03:13:39;9.10;99.90
30764;DHT22;17497;51.476;7.770;2022-09-27T03:16:26;9.10;99.90
30764;DHT22;17497;51.476;7.770;2022-09-27T03:18:52;9.10;99.90
30764;DHT22;17497;51.476;7.770;2022-09-27T03:21:19;9.10;99.90
30764;DHT22;17497;51.476;7.770;2022-09-27T03:23:45;9.10;99.90
30764;DHT22;17497;51.476;7.770;2022-09-27T03:26:12;9.00;99.90
30764;DHT22;17497;51.476;7.770;2022-09-27T03:28:38;9.00;99.90
30764;DHT22;17497;51.476;7.770;2022-09-27T03:31:05;9.00;99.90
30764;DHT22;17497;51.476;7.770;2022-09-27T03:33:32;9.00;99.90
30764;DHT22;17497;51.476;7.770;2022-09-27T03:35:58;9.00;99.90
30764;DHT22;17497;51.476;7.770;2022-09-27T03:38:25;9.00;99.90
30764;DHT22;17497;51.476;7.770;2022-09-27T03:40:52;9.10;99.90
30764;DHT22;17497;51.476;7.770;2022-09-27T03:43:18;9.10;99.90
30764;DHT22;17497;51.476;7.770;2022-09-27T03:45:45;9.00;99.90
30764;DHT22;17497;51.476;7.770;2022-09-27T03:48:12;9.00;99.90
30764;DHT22;17497;51.476;7.770;2022-09-27T03:50:39;8.90;99.90
30764;DHT22;17497;51.476;7.770;2022-09-27T03:53:06;8.90;99.90
30764;DHT22;17497;51.476;7.770;2022-09-27T03:55:33;8.90;99.90
30764;DHT22;17497;51.476;7.770;2022-09-27T03:58:00;8.90;99.90
30764;DHT22;17497;51.476;7.770;2022-09-27T04:00:27;8.90;99.90
30764;DHT22;17497;51.476;7.770;2022-09-27T04:02:54;8.90;99.90
30764;DHT22;17497;51.476;7.770;2022-09-27T04:05:20;8.90;99.90
30764;DHT22;17497;51.476;7.770;2022-09-27T04:07:47;8.90;99.90
30764;DHT22;17497;51.476;7.770;2022-09-27T04:10:14;8.90;99.90
30764;DHT22;17497;51.476;7.770;2022-09-27T04:12:42;8.80;99.90
30764;DHT22;17497;51.476;7.770;2022-09-27T04:15:08;8.80;99.90
30764;DHT22;17497;51.476;7.770;2022-09-27T04:17:35;8.80;99.90
30764;DHT22;17497;51.476;7.770;2022-09-27T04:20:02;8.80;99.90
30764;DHT22;17497;51.476;7.770;2022-09-27T04:22:29;8.80;99.90
30764;DHT22;17497;51.476;7.770;2022-09-27T04:24:55;8.70;99.90
30764;DHT22;17497;51.476;7.770;2022-09-27T04:27:22;8.70;99.90
30764;DHT22;17497;51.476;7.770;2022-09-27T04:29:49;8.70;99.90
30764;DHT22;17497;51.476;7.770;2022-09-27T04:32:15;8.60;99.90
30764;DHT22;17497;51.476;7.770;2022-09-27T04:34:42;8.60;99.90
30764;DHT22;17497;51.476;7.770;2022-09-27T04:37:27;8.60;99.90
30764;DHT22;17497;51.476;7.770;2022-09-27T04:39:54;8.60;99.90
30764;DHT22;17497;51.476;7.770;2022-09-27T04:42:21;8.70;99.90
30764;DHT22;17497;51.476;7.770;2022-09-27T04:44:47;8.70;99.90
30764;DHT22;17497;51.476;7.770;2022-09-27T04:47:14;8.60;99.90
30764;DHT22;17497;51.476;7.770;2022-09-27T04:49:41;8.70;99.90
30764;DHT22;17497;51.476;7.770;2022-09-27T04:52:07;8.60;99.90
30764;DHT22;17497;51.476;7.770;2022-09-27T04:54:34;8.60;99.90
30764;DHT22;17497;51.476;7.770;2022-09-27T04:57:00;8.60;99.90
30764;DHT22;17497;51.476;7.770;2022-09-27T04:59:27;8.60;99.90
30764;DHT22;17497;51.476;7.770;2022-09-27T05:01:54;8.60;99.90
30764;DHT22;17497;51.476;7.770;2022-09-27T05:04:20;8.60;99.90
30764;DHT22;17497;51.476;7.770;2022-09-27T05:06:47;8.60;99.90
30764;DHT22;17497;51.476;7.770;2022-09-27T05:09:16;8.60;99.90
30764;DHT22;17497;51.476;7.770;2022-09-27T05:11:43;8.60;99.90
30764;DHT22;17497;51.476;7.770;2022-09-27T05:14:10;8.60;99.90
30764;DHT22;17497;51.476;7.770;2022-09-27T05:16:37;8.60;99.90
30764;DHT22;17497;51.476;7.770;2022-09-27T05:19:03;8.60;99.90
30764;DHT22;17497;51.476;7.770;2022-09-27T05:21:30;8.60;99.90
30764;DHT22;17497;51.476;7.770;2022-09-27T05:23:57;8.60;99.90
30764;DHT22;17497;51.476;7.770;2022-09-27T05:26:25;8.60;99.90
30764;DHT22;17497;51.476;7.770;2022-09-27T05:31:40;8.60;99.90
30764;DHT22;17497;51.476;7.770;2022-09-27T05:34:06;8.50;99.90
30764;DHT22;17497;51.476;7.770;2022-09-27T05:36:34;8.50;99.90
30764;DHT22;17497;51.476;7.770;2022-09-27T05:39:01;8.50;99.90
30764;DHT22;17497;51.476;7.770;2022-09-27T05:41:27;8.60;99.90
30764;DHT22;17497;51.476;7.770;2022-09-27T05:43:54;8.60;99.90
30764;DHT22;17497;51.476;7.770;2022-09-27T05:46:21;8.60;99.90
30764;DHT22;17497;51.476;7.770;2022-09-27T05:48:47;8.60;99.90
30764;DHT22;17497;51.476;7.770;2022-09-27T05:51:14;8.70;99.90
30764;DHT22;17497;51.476;7.770;2022-09-27T05:53:41;8.70;99.90
30764;DHT22;17497;51.476;7.770;2022-09-27T05:56:07;8.70;99.90
30764;DHT22;17497;51.476;7.770;2022-09-27T05:58:34;8.70;99.90
30764;DHT22;17497;51.476;7.770;2022-09-27T06:01:00;8.70;99.90
30764;DHT22;17497;51.476;7.770;2022-09-27T06:03:27;8.70;99.90
30764;DHT22;17497;51.476;7.770;2022-09-27T06:05:53;8.70;99.90
30764;DHT22;17497;51.476;7.770;2022-09-27T06:08:20;8.70;99.90
30764;DHT22;17497;51.476;7.770;2022-09-27T06:10:47;8.70;99.90
30764;DHT22;17497;51.476;7.770;2022-09-27T06:13:14;8.70;99.90
30764;DHT22;17497;51.476;7.770;2022-09-27T06:15:42;8.70;99.90
30764;DHT22;17497;51.476;7.770;2022-09-27T06:18:10;8.70;99.90
30764;DHT22;17497;51.476;7.770;2022-09-27T06:20:37;8.70;99.90
30764;DHT22;17497;51.476;7.770;2022-09-27T06:23:05;8.70;99.90
30764;DHT22;17497;51.476;7.770;2022-09-27T06:25:33;8.70;99.90
30764;DHT22;17497;51.476;7.770;2022-09-27T06:28:00;8.70;99.90
30764;DHT22;17497;51.476;7.770;2022-09-27T06:30:27;8.70;99.90
30764;DHT22;17497;51.476;7.770;2022-09-27T06:32:55;8.70;99.90
30764;DHT22;17497;51.476;7.770;2022-09-27T06:35:22;8.70;99.90
30764;DHT22;17497;51.476;7.770;2022-09-27T06:37:50;8.70;99.90
30764;DHT22;17497;51.476;7.770;2022-09-27T06:40:17;8.80;99.90
30764;DHT22;17497;51.476;7.770;2022-09-27T06:42:44;8.80;99.90
30764;DHT22;17497;51.476;7.770;2022-09-27T06:45:11;8.80;99.90
30764;DHT22;17497;51.476;7.770;2022-09-27T06:47:37;8.80;99.90
30764;DHT22;17497;51.476;7.770;2022-09-27T06:50:04;8.90;99.90
30764;DHT22;17497;51.476;7.770;2022-09-27T06:52:32;8.90;99.90
30764;DHT22;17497;51.476;7.770;2022-09-27T06:54:59;9.00;99.90
30764;DHT22;17497;51.476;7.770;2022-09-27T06:57:26;9.00;99.90
30764;DHT22;17497;51.476;7.770;2022-09-27T07:00:11;9.00;99.90
30764;DHT22;17497;51.476;7.770;2022-09-27T07:02:52;9.00;99.90
30764;DHT22;17497;51.476;7.770;2022-09-27T07:05:19;9.00;99.90
30764;DHT22;17497;51.476;7.770;2022-09-27T07:07:46;9.00;99.90
30764;DHT22;17497;51.476;7.770;2022-09-27T07:10:16;9.10;99.90
30764;DHT22;17497;51.476;7.770;2022-09-27T07:12:43;9.10;99.90
30764;DHT22;17497;51.476;7.770;2022-09-27T07:15:14;9.10;99.90
30764;DHT22;17497;51.476;7.770;2022-09-27T07:17:41;9.10;99.90
30764;DHT22;17497;51.476;7.770;2022-09-27T07:20:08;9.10;99.90
30764;DHT22;17497;51.476;7.770;2022-09-27T07:22:41;9.10;99.90
30764;DHT22;17497;51.476;7.770;2022-09-27T07:25:08;9.20;99.90
30764;DHT22;17497;51.476;7.770;2022-09-27T07:27:35;9.20;99.90
30764;DHT22;17497;51.476;7.770;2022-09-27T07:30:04;9.30;99.90
30764;DHT22;17497;51.476;7.770;2022-09-27T07:32:32;9.30;99.90
30764;DHT22;17497;51.476;7.770;2022-09-27T07:35:01;9.30;99.90
30764;DHT22;17497;51.476;7.770;2022-09-27T07:37:30;9.20;99.90
30764;DHT22;17497;51.476;7.770;2022-09-27T07:39:57;9.20;99.90
30764;DHT22;17497;51.476;7.770;2022-09-27T07:42:24;9.20;99.90
30764;DHT22;17497;51.476;7.770;2022-09-27T07:44:51;9.20;99.90
30764;DHT22;17497;51.476;7.770;2022-09-27T07:47:17;9.10;99.90
30764;DHT22;17497;51.476;7.770;2022-09-27T07:49:45;9.10;99.90
30764;DHT22;17497;51.476;7.770;2022-09-27T07:52:11;9.10;99.90
30764;DHT22;17497;51.476;7.770;2022-09-27T07:54:38;9.10;99.90
30764;DHT22;17497;51.476;7.770;2022-09-27T07:57:05;9.00;99.90
30764;DHT22;17497;51.476;7.770;2022-09-27T07:59:31;9.00;99.90
30764;DHT22;17497;51.476;7.770;2022-09-27T08:01:58;8.90;99.90
30764;DHT22;17497;51.476;7.770;2022-09-27T08:04:25;8.90;99.90
30764;DHT22;17497;51.476;7.770;2022-09-27T08:06:51;8.90;99.90
30764;DHT22;17497;51.476;7.770;2022-09-27T08:09:18;8.80;99.90
30764;DHT22;17497;51.476;7.770;2022-09-27T08:11:45;8.80;99.90
30764;DHT22;17497;51.476;7.770;2022-09-27T08:14:11;8.80;99.90
30764;DHT22;17497;51.476;7.770;2022-09-27T08:16:42;8.80;99.90
30764;DHT22;17497;51.476;7.770;2022-09-27T08:19:09;8.80;99.90
30764;DHT22;17497;51.476;7.770;2022-09-27T08:21:36;8.90;99.90
30764;DHT22;17497;51.476;7.770;2022-09-27T08:24:03;8.90;99.90
30764;DHT22;17497;51.476;7.770;2022-09-27T08:26:30;8.90;99.90
30764;DHT22;17497;51.476;7.770;2022-09-27T08:28:56;8.90;99.90
30764;DHT22;17497;51.476;7.770;2022-09-27T08:31:23;9.00;99.90
30764;DHT22;17497;51.476;7.770;2022-09-27T08:33:51;9.00;99.90
30764;DHT22;17497;51.476;7.770;2022-09-27T08:36:18;8.90;99.90
30764;DHT22;17497;51.476;7.770;2022-09-27T08:38:48;8.90;99.90
30764;DHT22;17497;51.476;7.770;2022-09-27T08:41:21;8.90;99.90
30764;DHT22;17497;51.476;7.770;2022-09-27T08:46:40;8.90;99.90
30764;DHT22;17497;51.476;7.770;2022-09-27T08:49:11;8.80;99.90
30764;DHT22;17497;51.476;7.770;2022-09-27T08:51:39;8.70;99.90
30764;DHT22;17497;51.476;7.770;2022-09-27T08:56:33;8.80;99.90
30764;DHT22;17497;51.476;7.770;2022-09-27T08:59:04;8.90;99.90
30764;DHT22;17497;51.476;7.770;2022-09-27T09:01:35;9.00;99.90
30764;DHT22;17497;51.476;7.770;2022-09-27T09:04:02;9.10;99.90
30764;DHT22;17497;51.476;7.770;2022-09-27T09:06:32;9.20;99.90
30764;DHT22;17497;51.476;7.770;2022-09-27T09:19:54;9.10;99.90
30764;DHT22;17497;51.476;7.770;2022-09-27T09:22:34;9.20;99.90
30764;DHT22;17497;51.476;7.770;2022-09-27T09:25:13;9.20;99.90
30764;DHT22;17497;51.476;7.770;2022-09-27T09:30:34;9.30;99.90
30764;DHT22;17497;51.476;7.770;2022-09-27T09:35:40;9.50;99.90
30764;DHT22;17497;51.476;7.770;2022-09-27T09:38:12;9.60;99.90
30764;DHT22;17497;51.476;7.770;2022-09-27T09:40:41;9.80;99.90
30764;DHT22;17497;51.476;7.770;2022-09-27T09:43:16;9.80;99.90
30764;DHT22;17497;51.476;7.770;2022-09-27T09:45:46;9.80;99.90
30764;DHT22;17497;51.476;7.770;2022-09-27T09:50:53;9.80;99.90
30764;DHT22;17497;51.476;7.770;2022-09-27T09:56:09;9.90;99.90
30764;DHT22;17497;51.476;7.770;2022-09-27T09:58:44;10.00;99.90
30764;DHT22;17497;51.476;7.770;2022-09-27T10:03:41;9.80;99.90
30764;DHT22;17497;51.476;7.770;2022-09-27T10:06:08;9.80;99.90
30764;DHT22;17497;51.476;7.770;2022-09-27T10:08:34;9.80;99.90
30764;DHT22;17497;51.476;7.770;2022-09-27T10:11:01;9.90;99.90
30764;DHT22;17497;51.476;7.770;2022-09-27T10:13:29;9.90;99.90
30764;DHT22;17497;51.476;7.770;2022-09-27T10:16:01;9.90;99.90
30764;DHT22;17497;51.476;7.770;2022-09-27T10:18:28;9.90;99.90
30764;DHT22;17497;51.476;7.770;2022-09-27T10:20:56;9.90;99.90
30764;DHT22;17497;51.476;7.770;2022-09-27T10:23:24;9.90;99.90
30764;DHT22;17497;51.476;7.770;2022-09-27T10:25:55;9.90;99.90
30764;DHT22;17497;51.476;7.770;2022-09-27T10:28:36;9.90;99.90
30764;DHT22;17497;51.476;7.770;2022-09-27T10:31:07;9.80;99.90
30764;DHT22;17497;51.476;7.770;2022-09-27T10:33:39;9.80;99.90
30764;DHT22;17497;51.476;7.770;2022-09-27T10:36:21;9.70;99.90
30764;DHT22;17497;51.476;7.770;2022-09-27T10:38:58;9.90;99.90
30764;DHT22;17497;51.476;7.770;2022-09-27T10:41:39;9.90;99.90
30764;DHT22;17497;51.476;7.770;2022-09-27T10:44:26;9.90;99.90
30764;DHT22;17497;51.476;7.770;2022-09-27T10:46:54;10.00;99.90
30764;DHT22;17497;51.476;7.770;2022-09-27T10:49:28;10.50;99.90
30764;DHT22;17497;51.476;7.770;2022-09-27T10:51:59;10.70;99.90
30764;DHT22;17497;51.476;7.770;2022-09-27T10:54:28;11.40;99.90
30764;DHT22;17497;51.476;7.770;2022-09-27T10:56:57;11.80;99.90
30764;DHT22;17497;51.476;7.770;2022-09-27T10:59:24;12.20;99.90
30764;DHT22;17497;51.476;7.770;2022-09-27T11:01:51;12.40;99.90
30764;DHT22;17497;51.476;7.770;2022-09-27T11:04:36;12.60;99.90
30764;DHT22;17497;51.476;7.770;2022-09-27T11:09:43;12.80;99.90
30764;DHT22;17497;51.476;7.770;2022-09-27T11:12:11;12.90;99.90
30764;DHT22;17497;51.476;7.770;2022-09-27T11:14:38;12.50;99.90
30764;DHT22;17497;51.476;7.770;2022-09-27T11:17:09;12.00;99.90
30764;DHT22;17497;51.476;7.770;2022-09-27T11:25:02;11.50;99.90
30764;DHT22;17497;51.476;7.770;2022-09-27T11:30:15;11.70;99.90
30764;DHT22;17497;51.476;7.770;2022-09-27T11:38:30;11.20;99.90
30764;DHT22;17497;51.476;7.770;2022-09-27T11:41:24;11.00;99.90
30764;DHT22;17497;51.476;7.770;2022-09-27T11:43:58;10.80;99.90
30764;DHT22;17497;51.476;7.770;2022-09-27T11:46:31;10.70;99.90
30764;DHT22;17497;51.476;7.770;2022-09-27T11:49:14;11.00;99.90
30764;DHT22;17497;51.476;7.770;2022-09-27T11:51:47;11.60;99.90
30764;DHT22;17497;51.476;7.770;2022-09-27T12:05:24;13.10;99.90
30764;DHT22;17497;51.476;7.770;2022-09-27T12:10:22;12.10;99.90
30764;DHT22;17497;51.476;7.770;2022-09-27T12:12:50;12.00;99.90
30764;DHT22;17497;51.476;7.770;2022-09-27T12:15:19;11.70;99.90
30764;DHT22;17497;51.476;7.770;2022-09-27T12:17:48;11.50;99.90
30764;DHT22;17497;51.476;7.770;2022-09-27T12:20:20;11.20;99.90
30764;DHT22;17497;51.476;7.770;2022-09-27T12:23:24;11.20;99.90
30764;DHT22;17497;51.476;7.770;2022-09-27T12:25:41;11.20;99.90
30764;DHT22;17497;51.476;7.770;2022-09-27T12:28:11;11.30;99.90
30764;DHT22;17497;51.476;7.770;2022-09-27T12:30:40;11.40;99.90
30764;DHT22;17497;51.476;7.770;2022-09-27T12:33:14;11.40;99.90
30764;DHT22;17497;51.476;7.770;2022-09-27T12:35:44;11.80;99.90
30764;DHT22;17497;51.476;7.770;2022-09-27T12:38:19;12.00;99.90
30764;DHT22;17497;51.476;7.770;2022-09-27T12:40:48;12.10;99.90
30764;DHT22;17497;51.476;7.770;2022-09-27T12:48:32;11.80;99.90
30764;DHT22;17497;51.476;7.770;2022-09-27T12:51:06;11.70;99.90
30764;DHT22;17497;51.476;7.770;2022-09-27T12:56:22;11.40;99.90
30764;DHT22;17497;51.476;7.770;2022-09-27T13:09:33;11.50;99.90
30764;DHT22;17497;51.476;7.770;2022-09-27T13:12:15;11.70;99.90
30764;DHT22;17497;51.476;7.770;2022-09-27T13:19:56;11.50;99.90
30764;DHT22;17497;51.476;7.770;2022-09-27T13:24:53;11.40;99.90
30764;DHT22;17497;51.476;7.770;2022-09-27T13:32:37;11.80;99.90
30764;DHT22;17497;51.476;7.770;2022-09-27T13:37:44;11.60;99.90
30764;DHT22;17497;51.476;7.770;2022-09-27T13:42:51;11.40;99.90
30764;DHT22;17497;51.476;7.770;2022-09-27T13:45:28;11.40;99.90
30764;DHT22;17497;51.476;7.770;2022-09-27T13:47:57;11.10;99.90
30764;DHT22;17497;51.476;7.770;2022-09-27T13:50:30;10.80;99.90
30764;DHT22;17497;51.476;7.770;2022-09-27T13:53:02;10.50;99.90
30764;DHT22;17497;51.476;7.770;2022-09-27T13:55:39;10.20;99.90
30764;DHT22;17497;51.476;7.770;2022-09-27T14:00:53;9.80;99.90
30764;DHT22;17497;51.476;7.770;2022-09-27T14:03:34;9.70;99.90
30764;DHT22;17497;51.476;7.770;2022-09-27T14:06:04;9.60;99.90
30764;DHT22;17497;51.476;7.770;2022-09-27T14:08:38;9.50;99.90
30764;DHT22;17497;51.476;7.770;2022-09-27T14:13:43;9.20;99.90
30764;DHT22;17497;51.476;7.770;2022-09-27T14:16:13;9.20;99.90
30764;DHT22;17497;51.476;7.770;2022-09-27T14:18:45;9.10;99.90
30764;DHT22;17497;51.476;7.770;2022-09-27T14:21:18;9.10;99.90
30764;DHT22;17497;51.476;7.770;2022-09-27T14:23:46;9.20;99.90
30764;DHT22;17497;51.476;7.770;2022-09-27T14:26:23;9.30;99.90
30764;DHT22;17497;51.476;7.770;2022-09-27T14:28:51;9.40;99.90
30764;DHT22;17497;51.476;7.770;2022-09-27T14:31:21;9.50;99.90
30764;DHT22;17497;51.476;7.770;2022-09-27T14:33:49;9.70;99.90
30764;DHT22;17497;51.476;7.770;2022-09-27T14:39:13;9.70;99.90
30764;DHT22;17497;51.476;7.770;2022-09-27T14:41:41;9.80;99.90
30764;DHT22;17497;51.476;7.770;2022-09-27T14:44:12;9.70;99.90
30764;DHT22;17497;51.476;7.770;2022-09-27T14:46:39;9.50;99.90
30764;DHT22;17497;51.476;7.770;2022-09-27T14:49:19;9.50;99.90
30764;DHT22;17497;51.476;7.770;2022-09-27T14:51:54;9.40;99.90
30764;DHT22;17497;51.476;7.770;2022-09-27T14:54:22;9.50;99.90
30764;DHT22;17497;51.476;7.770;2022-09-27T14:56:54;9.40;99.90
30764;DHT22;17497;51.476;7.770;2022-09-27T14:59:24;9.40;99.90
30764;DHT22;17497;51.476;7.770;2022-09-27T15:01:53;9.40;99.90
30764;DHT22;17497;51.476;7.770;2022-09-27T15:04:20;9.40;99.90
30764;DHT22;17497;51.476;7.770;2022-09-27T15:06:48;9.40;99.90
30764;DHT22;17497;51.476;7.770;2022-09-27T15:09:15;9.40;99.90
30764;DHT22;17497;51.476;7.770;2022-09-27T15:11:43;9.50;99.90
30764;DHT22;17497;51.476;7.770;2022-09-27T15:14:12;9.50;99.90
30764;DHT22;17497;51.476;7.770;2022-09-27T15:16:40;9.50;99.90
30764;DHT22;17497;51.476;7.770;2022-09-27T15:19:14;9.40;99.90
30764;DHT22;17497;51.476;7.770;2022-09-27T15:21:42;9.50;99.90
30764;DHT22;17497;51.476;7.770;2022-09-27T15:26:54;9.60;99.90
30764;DHT22;17497;51.476;7.770;2022-09-27T15:29:23;9.50;99.90
30764;DHT22;17497;51.476;7.770;2022-09-27T15:32:03;9.50;99.90
30764;DHT22;17497;51.476;7.770;2022-09-27T15:34:31;9.50;99.90
30764;DHT22;17497;51.476;7.770;2022-09-27T15:37:00;9.60;99.90
30764;DHT22;17497;51.476;7.770;2022-09-27T15:41:59;9.60;99.90
30764;DHT22;17497;51.476;7.770;2022-09-27T15:45:00;9.60;99.90
30764;DHT22;17497;51.476;7.770;2022-09-27T15:50:30;9.60;99.90
30764;DHT22;17497;51.476;7.770;2022-09-27T15:52:47;9.60;99.90
30764;DHT22;17497;51.476;7.770;2022-09-27T15:55:19;9.70;99.90
30764;DHT22;17497;51.476;7.770;2022-09-27T15:57:51;9.70;99.90
30764;DHT22;17497;51.476;7.770;2022-09-27T16:00:18;9.60;99.90
30764;DHT22;17497;51.476;7.770;2022-09-27T16:02:46;9.50;99.90
30764;DHT22;17497;51.476;7.770;2022-09-27T16:05:12;9.50;99.90
30764;DHT22;17497;51.476;7.770;2022-09-27T16:07:39;9.50;99.90
30764;DHT22;17497;51.476;7.770;2022-09-27T16:12:45;9.50;99.90
30764;DHT22;17497;51.476;7.770;2022-09-27T16:15:11;9.40;99.90
30764;DHT22;17497;51.476;7.770;2022-09-27T16:17:38;9.40;99.90
30764;DHT22;17497;51.476;7.770;2022-09-27T16:20:14;9.40;99.90
30764;DHT22;17497;51.476;7.770;2022-09-27T16:22:42;9.40;99.90
30764;DHT22;17497;51.476;7.770;2022-09-27T16:25:09;9.40;99.90
30764;DHT22;17497;51.476;7.770;2022-09-27T16:27:36;9.40;99.90
30764;DHT22;17497;51.476;7.770;2022-09-27T16:30:02;9.30;99.90
30764;DHT22;17497;51.476;7.770;2022-09-27T16:32:29;9.30;99.90
30764;DHT22;17497;51.476;7.770;2022-09-27T16:34:55;9.30;99.90
30764;DHT22;17497;51.476;7.770;2022-09-27T16:37:23;9.30;99.90
30764;DHT22;17497;51.476;7.770;2022-09-27T16:39:49;9.30;99.90
30764;DHT22;17497;51.476;7.770;2022-09-27T16:42:16;9.30;99.90
30764;DHT22;17497;51.476;7.770;2022-09-27T16:44:43;9.40;99.90
30764;DHT22;17497;51.476;7.770;2022-09-27T16:47:10;9.40;99.90
30764;DHT22;17497;51.476;7.770;2022-09-27T16:49:36;9.30;99.90
30764;DHT22;17497;51.476;7.770;2022-09-27T16:52:22;9.30;99.90
30764;DHT22;17497;51.476;7.770;2022-09-27T16:54:48;9.30;99.90
30764;DHT22;17497;51.476;7.770;2022-09-27T16:57:15;9.30;99.90
30764;DHT22;17497;51.476;7.770;2022-09-27T16:59:42;9.30;99.90
30764;DHT22;17497;51.476;7.770;2022-09-27T17:02:08;9.20;99.90
30764;DHT22;17497;51.476;7.770;2022-09-27T17:04:35;9.20;99.90
30764;DHT22;17497;51.476;7.770;2022-09-27T17:07:02;9.20;99.90
30764;DHT22;17497;51.476;7.770;2022-09-27T17:09:29;9.30;99.90
30764;DHT22;17497;51.476;7.770;2022-09-27T17:11:55;9.20;99.90
30764;DHT22;17497;51.476;7.770;2022-09-27T17:14:22;9.10;99.90
30764;DHT22;17497;51.476;7.770;2022-09-27T17:16:49;9.10;99.90
30764;DHT22;17497;51.476;7.770;2022-09-27T17:19:16;9.10;99.90
30764;DHT22;17497;51.476;7.770;2022-09-27T17:21:44;9.10;99.90
30764;DHT22;17497;51.476;7.770;2022-09-27T17:24:10;9.10;99.90
30764;DHT22;17497;51.476;7.770;2022-09-27T17:26:37;9.00;99.90
30764;DHT22;17497;51.476;7.770;2022-09-27T17:29:04;9.00;99.90
30764;DHT22;17497;51.476;7.770;2022-09-27T17:31:31;9.00;99.90
30764;DHT22;17497;51.476;7.770;2022-09-27T17:34:00;9.00;99.90
30764;DHT22;17497;51.476;7.770;2022-09-27T17:36:28;9.00;99.90
30764;DHT22;17497;51.476;7.770;2022-09-27T17:38:56;9.10;99.90
30764;DHT22;17497;51.476;7.770;2022-09-27T17:41:24;8.90;99.90
30764;DHT22;17497;51.476;7.770;2022-09-27T17:43:54;8.80;99.90
30764;DHT22;17497;51.476;7.770;2022-09-27T17:46:25;8.70;99.90
30764;DHT22;17497;51.476;7.770;2022-09-27T17:48:52;8.60;99.90
30764;DHT22;17497;51.476;7.770;2022-09-27T17:51:39;8.60;99.90
30764;DHT22;17497;51.476;7.770;2022-09-27T17:54:07;8.50;99.90
30764;DHT22;17497;51.476;7.770;2022-09-27T17:56:35;8.50;99.90
30764;DHT22;17497;51.476;7.770;2022-09-27T17:59:02;8.50;99.90
30764;DHT22;17497;51.476;7.770;2022-09-27T18:01:29;8.40;99.90
30764;DHT22;17497;51.476;7.770;2022-09-27T18:03:56;8.50;99.90
30764;DHT22;17497;51.476;7.770;2022-09-27T18:06:24;8.50;99.90
30764;DHT22;17497;51.476;7.770;2022-09-27T18:08:52;8.50;99.90
30764;DHT22;17497;51.476;7.770;2022-09-27T18:11:19;8.50;99.90
30764;DHT22;17497;51.476;7.770;2022-09-27T18:13:54;8.40;99.90
30764;DHT22;17497;51.476;7.770;2022-09-27T18:16:21;8.50;99.90
30764;DHT22;17497;51.476;7.770;2022-09-27T18:18:57;8.40;99.90
30764;DHT22;17497;51.476;7.770;2022-09-27T18:21:25;8.40;99.90
30764;DHT22;17497;51.476;7.770;2022-09-27T18:23:53;8.40;99.90
30764;DHT22;17497;51.476;7.770;2022-09-27T18:26:20;8.40;99.90
30764;DHT22;17497;51.476;7.770;2022-09-27T18:28:51;8.40;99.90
30764;DHT22;17497;51.476;7.770;2022-09-27T18:31:19;8.40;99.90
30764;DHT22;17497;51.476;7.770;2022-09-27T18:33:46;8.40;99.90
30764;DHT22;17497;51.476;7.770;2022-09-27T18:36:16;8.40;99.90
30764;DHT22;17497;51.476;7.770;2022-09-27T18:38:50;8.40;99.90